Have a Safe July 4th! 

Flight Track Log - Related Links

Times and Time Zones

All times are in EDT time to prevent confusion due to time zone crossing. See the SWA1688 flight status page for this flight to view local times or setup timezone preferences in your user account.

Time Position Orientation Groundspeed Altitude Reporting Facility
EDT Latitude Longitude Course Direction KTS MPH feet Rate Location/Type
Fri 09:31:14 PM 28.4167 -81.3000 156° South 154 177 800  Level Orlando TRACON
Fri 09:31:50 PM 28.3833 -81.2833 156° South 182 209 2,300 2,688 Climbing Orlando TRACON
Fri 09:32:50 PM 28.3500 -81.2500 139° Southeast 223 257 5,100 2,927 Climbing Orlando TRACON
Fri 09:35:15 PM 28.5150 -81.2553 358° North 280 322 12,300 3,190 Climbing Jacksonville Center
Fri 09:36:15 PM 28.6094 -81.2775 348° North 309 356 16,000 3,500 Climbing Jacksonville Center
Fri 09:37:15 PM 28.7097 -81.2994 349° North 345 397 19,300 3,250 Climbing Jacksonville Center
Fri 09:38:15 PM 28.8122 -81.3239 348° North 364 419 22,500 3,000 Climbing Jacksonville Center
Fri 09:39:15 PM 28.9211 -81.3483 349° North 384 442 25,300 1,750 Climbing Jacksonville Center
Fri 09:40:15 PM 29.0278 -81.3753 348° North 389 448 26,000 750 Climbing Jacksonville Center
Fri 09:41:15 PM 29.1428 -81.3925 353° North 401 461 26,800 1,500 Climbing Jacksonville Center
Fri 09:42:15 PM 29.2581 -81.4097 353° North 412 474 29,000 2,050 Climbing Jacksonville Center
Fri 09:43:15 PM 29.3792 -81.4197 356° North 418 481 30,900 2,150 Climbing Jacksonville Center
Fri 09:44:15 PM 29.5003 -81.4322 355° North 430 495 33,300 2,300 Climbing Jacksonville Center
Fri 09:45:15 PM 29.6172 -81.4425 356° North 430 495 35,500 1,900 Climbing Jacksonville Center
Fri 09:46:15 PM 29.7364 -81.4525 356° North 424 488 37,100 1,550 Climbing Jacksonville Center
Fri 09:47:15 PM 29.8556 -81.4581 358° North 424 488 38,600 1,450 Climbing Jacksonville Center
Fri 09:48:15 PM 29.9739 -81.4156 17° North 425 489 40,000 1,200 Climbing Jacksonville Center
Fri 09:49:15 PM 30.0883 -81.3706 19° North 425 489 41,000 500 Climbing Jacksonville Center
Fri 09:50:15 PM 30.2089 -81.3231 19° North 438 504 41,000  Level Jacksonville Center
Fri 09:51:15 PM 30.3231 -81.2778 19° North 438 504 41,000  Level Jacksonville Center
Fri 09:52:15 PM 30.4394 -81.2325 19° North 438 504 41,000  Level Jacksonville Center
Fri 09:53:16 PM 30.5558 -81.1869 19° North 444 511 41,000  Level Jacksonville Center
Fri 09:54:15 PM 30.6700 -81.1417 19° North 444 511 41,000  Level Jacksonville Center
Fri 09:55:15 PM 30.7883 -81.0933 19° North 444 511 41,000  Level Jacksonville Center
Fri 09:56:15 PM 30.9044 -81.0453 20° North 444 511 41,000  Level Jacksonville Center
Fri 09:57:15 PM 31.0228 -81.0017 18° North 444 511 41,000  Level Jacksonville Center
Fri 09:58:15 PM 31.1392 -80.9533 20° North 434 499 41,000  Level Jacksonville Center
Fri 09:59:15 PM 31.2553 -80.9072 19° North 443 510 41,000  Level Jacksonville Center
Fri 10:00:15 PM 31.3611 -80.8611 20° North 443 510 41,000  Level Jacksonville Center
Fri 10:01:16 PM 31.4897 -80.8094 19° North 436 502 41,000  Level Jacksonville Center
Fri 10:02:15 PM 31.6017 -80.7656 18° North 436 502 41,000  Level Jacksonville Center
Fri 10:03:15 PM 31.7178 -80.7189 19° North 436 502 41,000  Level Jacksonville Center
Fri 10:04:15 PM 31.8319 -80.6722 19° North 436 502 41,000  Level Jacksonville Center
Fri 10:05:15 PM 31.9356 -80.6281 20° North 436 502 41,000  Level Jacksonville Center
Fri 10:06:15 PM 32.0619 -80.5783 18° North 436 502 41,000  Level Jacksonville Center
Fri 10:07:15 PM 32.1736 -80.5289 21° North 436 502 41,000 -50 Level Jacksonville Center
Fri 10:08:15 PM 32.2919 -80.4817 19° North 442 509 40,900  Descending Jacksonville Center
Fri 10:09:16 PM 32.4078 -80.4344 19° North 437 503 41,000  Climbing Jacksonville Center
Fri 10:10:15 PM 32.5197 -80.3869 20° North 437 503 40,900  Descending Jacksonville Center
Fri 10:11:15 PM 32.6333 -80.3394 19° North 431 496 41,000  Climbing Jacksonville Center
Fri 10:12:15 PM 32.7431 -80.2944 19° North 426 490 40,900  Descending Jacksonville Center
Fri 10:13:16 PM 32.8528 -80.2467 20° North 426 490 41,000 50 Climbing Jacksonville Center
Fri 10:14:15 PM 32.9542 -80.2042 19° North 426 490 41,000  Level Jacksonville Center
Fri 10:15:15 PM 33.0694 -80.1311 28° Northeast 426 490 41,000  Level Jacksonville Center
Fri 10:16:15 PM 33.1683 -80.0636 30° Northeast 426 490 41,000 -50 Level Jacksonville Center
Fri 10:17:15 PM 33.2711 -79.9958 29° Northeast 426 490 40,900  Descending Jacksonville Center
Fri 10:18:15 PM 33.3758 -79.9278 28° Northeast 426 490 41,000 50 Climbing Jacksonville Center
Fri 10:19:15 PM 33.4786 -79.8572 30° Northeast 426 490 41,000  Level Jacksonville Center
Fri 10:20:15 PM 33.5853 -79.7861 29° Northeast 426 490 41,000  Level Jacksonville Center
Fri 10:21:15 PM 33.6900 -79.7150 29° Northeast 426 490 41,000 -50 Level Jacksonville Center
Fri 10:22:15 PM 33.7967 -79.6461 28° Northeast 426 490 40,900 -50 Descending Jacksonville Center
Fri 10:23:15 PM 33.9014 -79.5747 29° Northeast 426 490 40,900 50 Level Jacksonville Center
Fri 10:24:16 PM 34.0058 -79.5031 30° Northeast 426 490 41,000 31 Climbing Jacksonville Center
Fri 10:26:27 PM 34.2444 -79.3428 29° Northeast 428 493 41,000  Level Washington Center
Fri 10:27:27 PM 34.3428 -79.2717 31° Northeast 444 511 41,000  Level Washington Center
Fri 10:28:28 PM 34.4492 -79.1958 30° Northeast 444 511 41,000  Level Washington Center
Fri 10:29:28 PM 34.5558 -79.1225 30° Northeast 444 511 41,000  Level Washington Center
Fri 10:30:28 PM 34.6622 -79.0511 29° Northeast 444 511 41,000  Level Washington Center
Fri 10:31:29 PM 34.7664 -78.9797 29° Northeast 439 505 41,000  Level Washington Center
Fri 10:32:29 PM 34.8731 -78.9033 30° Northeast 439 505 41,000  Level Washington Center
Fri 10:33:27 PM 34.9772 -78.8314 30° Northeast 433 498 41,000  Level Washington Center
Fri 10:34:29 PM 35.0792 -78.7594 30° Northeast 433 498 41,000  Level Washington Center
Fri 10:35:26 PM 35.1856 -78.6875 29° Northeast 433 498 41,000  Level Washington Center
Fri 10:36:28 PM 35.2897 -78.6125 30° Northeast 433 498 41,000  Level Washington Center
Fri 10:37:27 PM 35.3958 -78.5375 30° Northeast 441 507 41,000  Level Washington Center
Fri 10:38:28 PM 35.5125 -78.4550 30° Northeast 441 507 41,000  Level Washington Center
Fri 10:39:28 PM 35.6231 -78.3747 31° Northeast 447 514 41,000  Level Washington Center
Fri 10:40:27 PM 35.7269 -78.3017 30° Northeast 442 509 41,000  Level Washington Center
Fri 10:41:28 PM 35.8308 -78.2283 30° Northeast 437 503 41,000  Level Washington Center
Fri 10:42:29 PM 35.9367 -78.1522 30° Northeast 437 503 41,000  Level Washington Center
Fri 10:43:29 PM 36.0425 -78.0786 29° Northeast 432 497 41,000  Level Washington Center
Fri 10:44:27 PM 36.1464 -78.0022 31° Northeast 432 497 41,000  Level Washington Center
Fri 10:45:27 PM 36.2522 -77.9281 29° Northeast 426 490 41,000  Level Washington Center
Fri 10:46:27 PM 36.3478 -77.8458 35° Northeast 426 490 41,000  Level Washington Center
Fri 10:47:28 PM 36.4428 -77.7867 27° Northeast 426 490 41,000  Level Washington Center
Fri 10:48:28 PM 36.5464 -77.7094 31° Northeast 421 484 41,000  Level Washington Center
Fri 10:49:28 PM 36.6497 -77.6372 29° Northeast 421 484 41,000  Level Washington Center
Fri 10:50:29 PM 36.7556 -77.5569 31° Northeast 427 491 41,000  Level Washington Center
Fri 10:51:27 PM 36.8611 -77.4792 31° Northeast 427 491 41,000  Level Washington Center
Fri 10:52:28 PM 36.9664 -77.4011 31° Northeast 432 497 41,000  Level Washington Center
Fri 10:53:28 PM 37.0742 -77.3203 31° Northeast 437 503 41,000  Level Washington Center
Fri 10:54:28 PM 37.1794 -77.2419 31° Northeast 437 503 41,000  Level Washington Center
Fri 10:55:29 PM 37.2975 -77.1531 31° Northeast 432 497 41,000  Level Washington Center
Fri 10:56:27 PM 37.3944 -77.0792 31° Northeast 445 512 41,000  Level Washington Center
Fri 10:57:29 PM 37.5122 -76.9925 30° Northeast 445 512 41,000  Level Washington Center
Fri 10:58:28 PM 37.6194 -76.9106 31° Northeast 445 512 41,000  Level Washington Center
Fri 10:59:28 PM 37.7225 -76.8336 31° Northeast 445 512 41,000  Level Washington Center
Fri 11:00:28 PM 37.8278 -76.7511 32° Northeast 439 505 41,000  Level Washington Center
Fri 11:01:27 PM 37.9306 -76.6739 31° Northeast 433 498 41,000  Level Washington Center
Fri 11:02:28 PM 38.0314 -76.5936 32° Northeast 433 498 41,000  Level Washington Center
Fri 11:03:29 PM 38.1364 -76.5158 30° Northeast 433 498 41,000  Level Washington Center
Fri 11:04:26 PM 38.2286 -76.4456 31° Northeast 433 498 41,000  Level Washington Center
Fri 11:05:27 PM 38.3292 -76.3619 33° Northeast 433 498 41,000  Level Washington Center
Fri 11:06:27 PM 38.4278 -76.2728 35° Northeast 433 498 41,000  Level Washington Center
Fri 11:07:28 PM 38.5261 -76.1808 36° Northeast 428 493 41,000 -49 Level Washington Center
Fri 11:08:29 PM 38.6372 -76.0781 36° Northeast 438 504 40,900 -51 Descending Washington Center
Fri 11:09:26 PM 38.7375 -75.9828 37° Northeast 438 504 40,900  Level Washington Center
Fri 11:10:27 PM 38.8358 -75.8956 35° Northeast 438 504 40,900 50 Level Washington Center
Fri 11:11:27 PM 38.9339 -75.8025 36° Northeast 433 498 41,000 50 Climbing Washington Center
Fri 11:12:26 PM 39.0300 -75.7119 36° Northeast 433 498 41,000  Level Washington Center
Fri 11:13:27 PM 39.1281 -75.6183 37° Northeast 433 498 41,000 -49 Level Washington Center
Fri 11:14:28 PM 39.2258 -75.5247 37° Northeast 433 498 40,900 -393 Descending Washington Center
Fri 11:15:29 PM 39.3217 -75.4358 36° Northeast 433 498 40,200 -807 Descending Washington Center
Fri 11:16:27 PM 39.4236 -75.3417 35° Northeast 433 498 39,300 -974 Descending Washington Center
Fri 11:17:26 PM 39.5256 -75.2525 34° Northeast 433 498 38,300 -942 Descending Washington Center
Fri 11:18:28 PM 39.6272 -75.1606 35° Northeast 438 504 37,400 -885 Descending Washington Center
Fri 11:19:28 PM 39.7228 -75.0708 36° Northeast 456 525 36,500 -990 Descending Washington Center
Fri 11:21:42 PM 39.9578 -74.8439 36° Northeast 452 520 34,200 -1,015 Descending New York Center
Fri 11:22:43 PM 40.0514 -74.7300 43° Northeast 452 520 33,200 -590 Descending New York Center
Fri 11:23:44 PM 40.1444 -74.6239 41° Northeast 447 514 33,000 -151 Descending New York Center
Fri 11:24:42 PM 40.2394 -74.5178 40° Northeast 442 509 32,900 -102 Descending New York Center
Fri 11:25:42 PM 40.3264 -74.4081 44° Northeast 437 503 32,800 -649 Descending New York Center
Fri 11:27:56 PM 40.5133 -74.1872 42° Northeast 449 517 30,800 -1,454 Descending Boston Center
Fri 11:28:56 PM 40.6258 -74.0533 42° Northeast 449 517 28,100 -3,000 Descending Boston Center
Fri 11:29:56 PM 40.7167 -73.9542 40° Northeast 454 522 24,800 -2,100 Descending Boston Center
Fri 11:30:56 PM 40.8078 -73.8439 42° Northeast 454 522 23,900 -450 Descending Boston Center
Fri 11:31:56 PM 40.9028 -73.7336 41° Northeast 454 522 23,900 -500 Level Boston Center
Fri 11:32:56 PM 40.9958 -73.6117 45° Northeast 436 502 22,900 -450 Descending Boston Center
Fri 11:33:56 PM 41.1044 -73.6053 North 383 441 23,000 -200 Climbing Boston Center
Fri 11:34:56 PM 41.2106 -73.6183 355° North 360 414 22,500 -750 Descending Boston Center
Fri 11:35:56 PM 41.3144 -73.6311 355° North 365 420 21,500 -1,000 Descending Boston Center
Fri 11:36:56 PM 41.4186 -73.6414 356° North 365 420 20,500 -750 Descending Boston Center
Fri 11:37:56 PM 41.5206 -73.6544 355° North 365 420 20,000 -450 Descending Boston Center
Fri 11:38:56 PM 41.6206 -73.6703 353° North 365 420 19,600 -625 Descending Boston Center
Fri 11:40:20 PM 41.7308 -73.6808 356° North 365 420 18,500 -1,167 Descending Boston Center
Fri 11:41:20 PM 41.8494 -73.6969 354° North 365 420 16,800 -2,069 Descending Boston Center
Fri 11:41:47 PM 41.9036 -73.7036 355° North 358 412 15,500 -2,842 Descending Boston Center
Fri 11:42:17 PM 41.9536 -73.7103 354° North 348 400 14,100 -2,637 Descending Boston Center
Fri 11:43:18 PM 42.0472 -73.7206 355° North 337 388 11,500 -1,670 Descending Boston Center
Fri 11:44:12 PM 42.1283 -73.7278 356° North 316 364 10,900 -365 Descending Boston Center
Fri 11:45:13 PM 42.2033 -73.7406 353° North 268 308 10,800 -1,180 Descending Boston Center
Fri 11:46:14 PM 42.2781 -73.7533 353° North 264 304 8,500 -2,281 Descending Boston Center
Fri 11:47:14 PM 42.3531 -73.7661 353° North 276 318 6,200 -2,033 Descending Boston Center
Fri 11:48:15 PM 42.4342 -73.7764 355° North 274 315 4,400 -1,587 Descending Boston Center
Fri 11:49:15 PM 42.5092 -73.7892 353° North 270 311 3,000 -694 Descending Boston Center
Fri 11:50:16 PM 42.5736 -73.8019 352° North 223 257 3,000 -246 Level Boston Center
Fri 11:51:17 PM 42.6214 -73.8000 North 148 170 2,500 -339 Descending Boston Center
Fri 11:52:20 PM 42.6797 -73.8097 353° North 192 221 2,300 -744 Descending Boston Center
Fri 11:53:18 PM 42.6986 -73.8044 12° North 137 158 1,000 -1,345 Descending Boston Center

Login

Don't have an account? Register now (free) for customized features, flight alerts, and more!